LFMP/PGF METAR and TAF weather

Enter ICAO airport designator
Station Type Date Time Source
LFMP METAR 2022/11/30 16:30 UTC NOAA

LFMP 301630Z AUTO 11003KT CAVOK 10/02 Q1016 NOSIG


Station Type Date Time Source
LFMP Decoded METAR 2022/11/30 16:30 UTC NOAA

Perpignan, France (LFMP) 42-44N 002-52E 48M
Nov 30, 2022 - 11:30 AM EST / 2022.11.30 1630 UTC
Wind: from the ESE (110 degrees) at 3 MPH (3 KT):0
Visibility: greater than 7 mile(s):0
Temperature: 50 F (10 C)
Dew Point: 35 F (2 C)
Relative Humidity: 57%
Pressure (altimeter): 30.00 in. Hg (1016 hPa)
ob: LFMP 301630Z AUTO 11003KT CAVOK 10/02 Q1016 NOSIG
cycle: 16

Station Type Date Time Source
LFMP TAF 2022/11/30 15:24 UTC NOAA

TAF LFMP 301400Z 3015/0115 03006KT CAVOK
BECMG 3021/3023 27005KT
BECMG 0103/0105 30008KT

Example: see airport list